Latest Weather Observations for Double Island Point

IDQ60801

Issued at 11:02 am EST Sunday 19 April 2015 (issued every 30 minutes, with the page automatically refreshed every 10 minutes)

About weather observations | Map of weather stations | Latest weather observations for QLD | Other Formats
Station Details ID: 040068 Name: DOUBLE ISLAND POINT LIGHTHOUSE Lat: -25.93 Lon: 153.19 Height: 95.64 m
Data from the previous 72 hours. | See also: Recent months at Double Island Point
Date/Time
EST
Temp
°C
App
Temp
°C
Dew
Point
Rel
Hum
%
Delta-T
°C
Wind Press
QNH
hPa
Press
MSL
hPa
Rain
since 9 am
mm
Dir
 
Spd
km/h
Gust
km/h
Spd
kts
Gust
kts
19/11:00am 27.2 28.1 19.3 62 5.1 N 13 22 7 12 1019.2 1018.8 0.2
19/10:30am 28.4 30.4 19.9 60 5.6 N 9 17 5 9 1019.4 1019.0 0.2
19/10:00am 26.9 29.2 19.5 64 4.8 NNE 6 9 3 5 1019.5 1019.1 0.2
19/09:30am 26.0 28.6 19.2 66 4.4 N 4 9 2 5 1019.6 1019.2 0.2
19/09:00am 24.4 26.4 19.2 73 3.3 E 7 9 4 5 1019.6 1019.2 0.8
19/08:30am 24.5 26.4 18.9 71 3.6 ESE 7 9 4 5 1019.5 1019.1 0.8
19/08:00am 24.0 26.2 19.3 75 3.0 SSE 6 9 3 5 1019.5 1019.1 0.8
19/07:30am 22.8 24.7 19.0 79 2.4 S 7 9 4 5 1019.3 1018.9 0.8
19/07:00am 22.3 24.0 18.5 79 2.4 SE 7 11 4 6 1018.8 1018.4 0.8
19/06:30am 21.5 22.6 17.9 80 2.2 SSE 9 11 5 6 1018.7 1018.3 0.8
19/06:00am 21.7 22.3 16.9 74 2.9 SSE 9 9 5 5 1018.5 1018.1 0.8
19/05:30am 21.1 22.2 17.1 78 2.5 SSW 7 9 4 5 1018.5 1018.1 0.8
19/05:00am 20.7 20.8 18.3 86 1.5 SSW 15 17 8 9 1018.2 1017.8 0.8
19/04:30am 20.6 20.2 18.0 85 1.6 SSW 17 19 9 10 1018.0 1017.6 0.8
19/04:00am 20.8 21.1 18.0 84 1.7 WSW 13 15 7 8 1018.1 1017.7 0.8
19/03:30am 20.5 20.1 18.1 86 1.5 WNW 17 19 9 10 1018.5 1018.1 0.8
19/03:00am 20.8 22.0 18.2 85 1.6 NW 9 15 5 8 1018.4 1018.0 0.8
19/02:30am 21.1 22.6 18.1 83 1.9 NNE 7 11 4 6 1018.8 1018.4 0.6
19/02:00am 21.6 22.8 18.2 81 2.1 NNW 9 15 5 8 1019.0 1018.6 0.2
19/01:30am 21.5 20.5 17.9 80 2.2 NW 20 24 11 13 1019.2 1018.8 0.2
19/01:00am 21.4 19.7 18.2 82 2.0 WNW 24 30 13 16 1019.6 1019.2 0.2
19/12:30am 21.2 20.4 18.0 82 2.0 NW 19 22 10 12 1020.0 1019.6 0.2
19/12:00am 21.4 20.2 17.0 76 2.7 ENE 19 41 10 22 1020.2 1019.8 0.2
 
Date/Time
EST
Temp
°C
App
Temp
°C
Dew
Point
Rel
Hum
%
Delta-T
°C
Wind Press
QNH
hPa
Press
MSL
hPa
Rain
since 9 am
mm
Dir
 
Spd
km/h
Gust
km/h
Spd
kts
Gust
kts
18/11:30pm 23.3 21.9 17.1 68 3.8 NNE 20 32 11 17 1020.1 1019.7 0.2
18/11:00pm 23.1 21.2 17.6 71 3.4 NNE 24 37 13 20 1020.1 1019.7 0.2
18/10:30pm 22.8 20.3 18.1 75 2.9 NNE 28 39 15 21 1020.3 1019.9 0.2
18/10:00pm 23.1 21.4 18.2 74 3.1 NNE 24 35 13 19 1020.5 1020.1 0.2
18/09:30pm 23.0 22.1 18.1 74 3.1 NE 20 30 11 16 1020.7 1020.3 0.2
18/09:00pm 22.9 22.3 18.9 78 2.5 NE 20 30 11 16 1020.8 1020.4 0.2
18/08:30pm 22.8 21.8 18.8 78 2.5 NE 22 35 12 19 1020.4 1020.0 0.2
18/08:00pm 22.9 21.7 19.3 80 2.3 NE 24 33 13 18 1020.3 1019.9 0.2
18/07:30pm 23.2 20.9 19.4 79 2.4 ENE 30 35 16 19 1020.0 1019.6 0.2
18/07:00pm 23.1 22.2 19.1 78 2.5 NE 22 32 12 17 1019.8 1019.4 0.2
18/06:30pm 23.2 21.6 19.1 78 2.6 NE 26 33 14 18 1019.5 1019.1 0.2
18/06:00pm 23.4 21.8 19.1 77 2.7 NE 26 35 14 19 1019.3 1018.9 0.2
18/05:30pm 23.7 21.7 18.4 72 3.4 ENE 26 32 14 17 1019.2 1018.8 0.2
18/05:00pm 24.7 24.5 17.7 65 4.4 NE 15 22 8 12 1019.4 1019.0 0.2
18/04:30pm 24.9 24.4 17.9 65 4.4 NE 17 22 9 12 1019.2 1018.8 0.2
18/04:00pm 25.8 25.4 18.0 62 4.9 NE 17 22 9 12 1018.8 1018.4 0.2
18/03:30pm 26.9 27.7 19.0 62 5.1 NE 13 20 7 11 1019.0 1018.6 0.2
18/03:00pm 26.6 27.2 18.5 61 5.2 NE 13 20 7 11 1019.0 1018.6 0.2
18/02:30pm 26.5 26.5 18.1 60 5.3 NE 15 24 8 13 1019.0 1018.6 0.2
18/02:00pm 26.6 25.9 18.2 60 5.3 NE 19 24 10 13 1019.1 1018.7 0.2
18/01:30pm 27.4 27.7 18.7 59 5.6 NE 15 22 8 12 1019.3 1018.9 0.2
18/01:00pm 26.2 25.4 18.1 61 5.1 NE 19 28 10 15 1019.6 1019.2 0.2
18/12:30pm 27.1 27.2 19.2 62 5.1 NE 17 24 9 13 1020.1 1019.7 0.2
18/12:00pm 25.9 24.1 19.5 68 4.1 ENE 28 35 15 19 1020.5 1020.1 0.2
18/11:30am 25.8 24.4 18.7 65 4.5 ENE 24 37 13 20 1021.0 1020.6 0.2
18/11:00am 27.0 27.2 19.4 63 4.9 NE 17 26 9 14 1021.4 1021.0 0.2
18/10:30am 26.1 24.6 18.5 63 4.9 NE 24 32 13 17 1022.0 1021.6 0.2
18/10:00am 25.4 22.6 18.3 65 4.5 NE 30 37 16 20 1021.8 1021.4 0.0
18/09:30am 25.0 22.6 19.1 70 3.8 NE 30 37 16 20 1022.0 1021.6 0.0
18/09:00am 23.8 24.5 20.5 82 2.1 NE 17 28 9 15 1022.1 1021.7 8.4
18/08:30am 21.8 20.1 18.0 79 2.4 ENE 24 32 13 17 1022.0 1021.6 8.0
18/08:18am 22.7 19.0 16.9 70 3.6 ENE 32 50 17 27 1021.7 1021.3 7.0
18/08:00am 24.6 21.8 18.1 67 4.1 ENE 30 35 16 19 1021.7 1021.3 7.0
18/07:30am 24.0 20.5 18.0 69 3.8 ENE 33 39 18 21 1021.4 1021.0 7.0
18/07:00am 23.6 20.5 17.6 69 3.7 ENE 30 35 16 19 1021.3 1020.9 7.0
18/06:30am 22.6 19.2 17.7 74 3.1 ENE 32 37 17 20 1021.1 1020.7 7.0
18/06:00am 22.6 18.3 17.7 74 3.0 ENE 37 44 20 24 1020.6 1020.2 7.0
18/05:30am 22.8 17.9 18.1 75 2.9 ENE 41 52 22 28 1020.3 1019.9 7.0
18/05:00am 22.8 19.3 17.9 74 3.1 ENE 33 41 18 22 1020.3 1019.9 7.0
18/04:30am 22.7 19.6 18.3 76 2.8 ENE 32 37 17 20 1020.2 1019.8 7.0
18/04:00am 22.9 18.9 17.6 72 3.3 ENE 35 43 19 23 1020.1 1019.7 7.0
18/03:30am 22.4 18.6 18.0 76 2.8 ENE 35 41 19 22 1020.0 1019.6 7.0
18/03:00am 21.8 21.4 19.4 86 1.5 ESE 20 33 11 18 1020.4 1020.0 7.0
18/02:30am 20.2 19.5 18.3 89 1.2 S 19 24 10 13 1020.6 1020.2 7.0
18/02:00am 20.2 18.6 18.3 89 1.2 S 24 28 13 15 1020.6 1020.2 7.0
18/01:30am 19.9 18.5 18.0 89 1.2 SSE 22 24 12 13 1021.0 1020.6 7.0
18/01:00am 19.8 19.3 17.8 88 1.2 ESE 17 20 9 11 1021.6 1021.2 6.4
18/12:30am 20.0 17.9 18.1 89 1.2 NE 26 33 14 18 1021.8 1021.4 6.0
18/12:00am 20.5 18.5 18.4 88 1.3 NE 26 41 14 22 1022.0 1021.6 5.6
 
Date/Time
EST
Temp
°C
App
Temp
°C
Dew
Point
Rel
Hum
%
Delta-T
°C
Wind Press
QNH
hPa
Press
MSL
hPa
Rain
since 9 am
mm
Dir
 
Spd
km/h
Gust
km/h
Spd
kts
Gust
kts
17/11:40pm 20.6 15.7 18.2 86 1.5 ENE 41 54 22 29 1021.8 1021.4 4.6
17/11:30pm 21.2 16.7 18.2 83 1.9 E 39 59 21 32 1021.6 1021.2 2.4
17/11:29pm 21.4 17.3 18.2 82 2.0 E 37 59 20 32 1021.5 1021.1 2.0
17/11:23pm 22.1 19.0 18.5 80 2.3 ENE 32 48 17 26 1021.6 1021.2 1.0
17/11:22pm 22.4 19.8 18.6 79 2.4 ENE 30 48 16 26 1021.5 1021.1 1.0
17/11:00pm 23.4 19.7 18.3 73 3.2 E 35 43 19 23 1021.6 1021.2 0.8
17/10:30pm 23.3 18.5 18.4 74 3.1 E 41 46 22 25 1021.6 1021.2 0.8
17/10:00pm 23.1 18.1 18.0 73 3.2 E 41 46 22 25 1021.6 1021.2 0.8
17/09:30pm 23.2 19.2 18.5 75 3.0 E 37 41 20 22 1021.7 1021.3 0.8
17/09:00pm 22.8 19.4 18.1 75 2.9 E 33 37 18 20 1021.8 1021.4 0.8
17/08:30pm 22.6 19.7 19.2 81 2.2 ESE 33 37 18 20 1021.7 1021.3 0.8
17/08:00pm 22.9 20.0 18.0 74 3.1 ESE 30 41 16 22 1021.8 1021.4 0.0
17/07:30pm 23.5 20.1 18.2 72 3.3 E 33 39 18 21 1021.4 1021.0 0.0
17/07:00pm 23.4 20.6 17.2 68 3.8 E 28 32 15 17 1021.1 1020.7 0.0
17/06:30pm 23.6 20.9 17.6 69 3.7 E 28 33 15 18 1020.9 1020.5 0.0
17/06:00pm 23.8 21.2 17.8 69 3.7 E 28 33 15 18 1020.6 1020.2 0.0
17/05:30pm 23.7 21.6 17.2 67 4.0 E 24 28 13 15 1020.4 1020.0 0.0
17/05:00pm 24.0 21.8 17.0 65 4.3 ESE 24 28 13 15 1020.3 1019.9 0.0
17/04:30pm 24.5 22.2 16.7 61 4.8 E 24 28 13 15 1020.2 1019.8 0.0
17/04:00pm 24.9 22.8 17.1 62 4.8 E 24 28 13 15 1020.0 1019.6 0.0
17/03:30pm 24.3 22.0 16.6 62 4.7 E 24 28 13 15 1020.0 1019.6 0.0
17/03:00pm 24.6 22.5 17.1 63 4.7 E 24 30 13 16 1020.2 1019.8 0.0
17/02:30pm 26.0 24.7 18.2 62 5.0 ESE 22 26 12 14 1020.2 1019.8 0.0
17/02:00pm 25.4 23.4 16.5 58 5.5 E 22 28 12 15 1020.4 1020.0 0.0
17/01:30pm 26.5 25.0 17.6 58 5.6 E 22 28 12 15 1020.6 1020.2 0.0
17/01:00pm 26.2 24.3 16.7 56 5.9 E 22 28 12 15 1021.0 1020.6 0.0
17/12:30pm 27.0 25.9 17.8 57 5.8 E 20 24 11 13 1021.4 1021.0 0.0
17/12:00pm 26.6 25.1 16.8 55 6.1 E 20 26 11 14 1021.8 1021.4 0.0
17/11:30am 26.6 24.2 17.4 57 5.8 E 26 30 14 16 1022.4 1022.0 0.0
17/11:00am 26.4 23.9 17.2 57 5.7 E 26 32 14 17 1022.8 1022.4 0.0
17/10:30am 26.6 24.3 17.7 58 5.6 E 26 30 14 16 1023.2 1022.8 0.0
17/10:00am 26.4 24.4 17.5 58 5.6 E 24 32 13 17 1023.4 1023.1 0.0
17/09:30am 26.1 23.6 17.2 58 5.6 E 26 30 14 16 1023.7 1023.4 0.0
17/09:00am 25.5 22.7 17.2 60 5.2 E 28 32 15 17 1023.6 1023.3 0.2
17/08:30am 24.9 23.3 18.3 66 4.2 E 24 30 13 16 1023.6 1023.3 0.2
17/08:00am 24.4 21.1 17.9 67 4.1 E 32 35 17 19 1023.4 1023.1 0.2
17/07:30am 23.8 20.8 18.7 73 3.2 ESE 32 41 17 22 1023.1 1022.7 0.2
17/07:00am 22.9 20.1 16.4 67 4.0 E 26 30 14 16 1023.0 1022.6 0.2
17/06:30am 22.7 20.5 16.9 70 3.6 ESE 24 30 13 16 1022.6 1022.2 0.2
17/06:00am 22.4 20.6 16.9 71 3.4 SE 22 28 12 15 1022.4 1022.0 0.2
17/05:30am 22.4 18.6 16.7 70 3.5 ESE 32 39 17 21 1022.0 1021.6 0.2
17/05:00am 22.5 20.1 16.3 68 3.8 ESE 24 30 13 16 1021.8 1021.4 0.2
17/04:30am 22.6 19.7 16.2 67 3.9 ESE 26 30 14 16 1021.5 1021.1 0.2
17/04:00am 22.4 19.7 15.7 66 4.0 ESE 24 30 13 16 1021.5 1021.1 0.2
17/03:30am 22.4 19.8 16.0 67 3.9 E 24 30 13 16 1021.2 1020.8 0.2
17/03:00am 22.5 19.2 16.1 67 3.9 E 28 33 15 18 1021.2 1020.8 0.2
17/02:30am 22.6 18.9 15.9 66 4.1 E 30 33 16 18 1021.3 1020.9 0.2
17/02:00am 22.8 19.3 16.6 68 3.8 E 30 35 16 19 1021.7 1021.3 0.2
17/01:30am 22.6 19.7 17.1 71 3.4 ESE 28 35 15 19 1022.0 1021.6 0.2
17/01:00am 22.7 19.8 16.0 66 4.0 ESE 26 33 14 18 1022.3 1021.9 0.2
17/12:30am 22.6 19.2 15.9 66 4.1 ESE 28 33 15 18 1022.6 1022.2 0.2
17/12:00am 22.7 19.1 16.3 67 3.9 ESE 30 35 16 19 1023.0 1022.6 0.2
 
Date/Time
EST
Temp
°C
App
Temp
°C
Dew
Point
Rel
Hum
%
Delta-T
°C
Wind Press
QNH
hPa
Press
MSL
hPa
Rain
since 9 am
mm
Dir
 
Spd
km/h
Gust
km/h
Spd
kts
Gust
kts
16/11:30pm 22.7 19.2 16.5 68 3.8 E 30 37 16 20 1023.2 1022.8 0.2
16/11:00pm 22.7 19.1 16.3 67 3.9 E 30 35 16 19 1023.2 1022.8 0.2
16/10:30pm 22.8 19.1 16.1 66 4.1 E 30 35 16 19 1023.5 1023.2 0.2
16/10:00pm 22.8 19.6 16.4 67 3.9 ESE 28 33 15 18 1023.7 1023.4 0.2
16/09:30pm 22.9 20.3 16.9 69 3.7 ESE 26 30 14 16 1023.7 1023.4 0.2
16/09:00pm 22.8 20.4 16.4 67 3.9 ESE 24 30 13 16 1023.7 1023.4 0.2
16/08:30pm 22.9 19.9 16.7 68 3.8 ESE 28 32 15 17 1023.6 1023.3 0.2
16/08:00pm 22.9 20.2 16.7 68 3.8 ESE 26 32 14 17 1023.4 1023.1 0.2
16/07:30pm 22.9 19.9 16.7 68 3.8 ESE 28 33 15 18 1023.2 1022.8 0.2
16/07:00pm 22.9 19.9 16.7 68 3.8 ESE 28 33 15 18 1022.9 1022.5 0.2
16/06:30pm 23.0 20.2 17.2 70 3.6 ESE 28 32 15 17 1022.6 1022.2 0.2
16/06:00pm 22.9 19.9 16.7 68 3.8 ESE 28 32 15 17 1022.5 1022.1 0.2
16/05:30pm 22.9 20.5 16.4 67 4.0 ESE 24 30 13 16 1022.4 1022.0 0.2
16/05:00pm 23.2 21.2 16.5 66 4.1 ESE 22 26 12 14 1022.3 1021.9 0.2
16/04:30pm 23.2 21.4 17.0 68 3.8 SE 22 26 12 14 1022.2 1021.8 0.2
16/04:00pm 23.5 22.0 16.8 66 4.1 SE 20 26 11 14 1022.3 1021.9 0.2
16/03:30pm 23.9 21.2 16.7 64 4.4 SE 26 32 14 17 1022.2 1021.8 0.2
16/03:00pm 24.3 22.1 16.8 63 4.6 ESE 24 30 13 16 1022.2 1021.8 0.2
16/02:30pm 24.6 22.3 16.6 61 4.9 ESE 24 30 13 16 1022.1 1021.7 0.2
16/02:00pm 24.8 22.4 16.5 60 5.1 ESE 24 30 13 16 1022.2 1021.8 0.2
16/01:30pm 24.9 22.6 16.6 60 5.1 ESE 24 28 13 15 1022.4 1022.0 0.2
16/01:00pm 25.0 22.9 17.2 62 4.8 ESE 24 30 13 16 1022.8 1022.4 0.2
16/12:30pm 25.0 22.5 17.0 61 5.0 ESE 26 32 14 17 1023.1 1022.7 0.2
16/12:00pm 25.2 22.8 17.4 62 4.9 ESE 26 30 14 16 1023.6 1023.3 0.2
16/11:30am 24.3 21.3 16.8 63 4.6 ESE 28 33 15 18 1024.2 1023.9 0.2

Other Formats:

Comma delimited format used in spreadsheet applications
http://www.bom.gov.au/fwo/IDQ60801/IDQ60801.94584.axf

JavaScript Object Notation format (JSON) in row-major order
http://www.bom.gov.au/fwo/IDQ60801/IDQ60801.94584.json